Time;durP1;ratioP1;P1;durP2;ratioP2;P2;SDS_P1;SDS_P2;PMS_P1;PMS_P2;Temp;Humidity;BMP_temperature;BMP_pressure;BME280_temperature;BME280_humidity;BME280_pressure;Samples;Min_cycle;Max_cycle;Signal;HPM_P1;HPM_P2
2023/03/20 00:00:29;;;;;;;112.40;46.80;;;;;;;7.05;65.24;100701.35;111052;1209;97671;-61
2023/03/20 00:02:55;;;;;;;124.40;49.20;;;;;;;7.02;65.41;100704.63;111100;1212;100356;-61
2023/03/20 00:05:23;;;;;;;113.20;47.80;;;;;;;6.98;65.41;100707.21;110782;1207;139640;-61
2023/03/20 00:07:49;;;;;;;131.80;49.00;;;;;;;6.94;65.51;100710.54;111208;1209;97604;-64
2023/03/20 00:10:19;;;;;;;119.60;48.50;;;;;;;6.89;65.55;100706.96;111012;1207;140542;-61
2023/03/20 00:12:47;;;;;;;120.00;49.60;;;;;;;6.86;65.74;100706.13;111116;1208;111688;-61
2023/03/20 00:15:21;;;;;;;121.40;51.30;;;;;;;6.87;65.80;100699.89;110905;1210;139720;-60
2023/03/20 00:17:46;;;;;;;123.70;49.30;;;;;;;6.88;65.96;100697.03;111072;1212;108103;-61
2023/03/20 00:20:16;;;;;;;123.60;50.60;;;;;;;6.90;66.08;100695.02;111079;1209;97715;-61
2023/03/20 00:22:41;;;;;;;118.80;51.90;;;;;;;6.91;66.09;100692.50;111043;1212;138977;-61
2023/03/20 00:25:14;;;;;;;119.80;48.10;;;;;;;6.91;66.11;100691.26;111122;1210;97584;-61
2023/03/20 00:27:40;;;;;;;184.30;73.20;;;;;;;6.91;65.98;100691.80;111014;1210;139400;-61
2023/03/20 00:30:29;;;;;;;126.90;55.00;;;;;;;6.88;66.16;100696.14;111030;1209;98778;-60
2023/03/20 00:32:56;;;;;;;132.30;52.40;;;;;;;6.84;66.08;100698.53;111023;1212;97703;-60
2023/03/20 00:35:28;;;;;;;131.30;50.30;;;;;;;6.87;66.48;100699.71;111017;1207;139172;-60
2023/03/20 00:37:55;;;;;;;127.30;52.90;;;;;;;6.88;66.55;100701.30;111144;1209;112579;-60
2023/03/20 00:40:21;;;;;;;139.80;55.30;;;;;;;6.86;66.64;100697.63;110977;1207;139293;-61
2023/03/20 00:42:52;;;;;;;127.80;54.30;;;;;;;6.84;66.81;100698.90;111019;1209;97552;-60
2023/03/20 00:45:20;;;;;;;133.30;52.30;;;;;;;6.83;66.83;100698.93;110878;1211;140001;-61
2023/03/20 00:47:50;;;;;;;141.70;55.70;;;;;;;6.80;66.89;100696.52;111057;1212;97588;-63
2023/03/20 00:50:20;;;;;;;135.90;56.30;;;;;;;6.74;66.78;100694.72;111101;1207;112157;-61
2023/03/20 00:52:47;;;;;;;144.00;55.90;;;;;;;6.70;66.84;100688.81;111057;1207;138759;-61
2023/03/20 00:55:14;;;;;;;129.70;53.00;;;;;;;6.62;67.01;100684.59;111016;1212;97776;-61
2023/03/20 00:57:44;;;;;;;132.80;54.50;;;;;;;6.55;67.12;100685.11;111070;1211;138787;-60
2023/03/20 01:00:40;;;;;;;137.20;54.40;;;;;;;6.53;67.27;100685.89;111092;1207;97626;-60
2023/03/20 01:03:21;;;;;;;144.50;56.90;;;;;;;6.51;67.39;100678.13;111031;1207;112613;-62
2023/03/20 01:05:48;;;;;;;152.40;64.20;;;;;;;6.48;67.55;100678.02;111204;1212;99449;-61
2023/03/20 01:08:23;;;;;;;134.80;55.60;;;;;;;6.47;67.65;100678.91;111092;1207;99434;-61
2023/03/20 01:10:54;;;;;;;260.80;104.20;;;;;;;6.44;67.61;100674.23;110966;1210;140795;-61
2023/03/20 01:13:26;;;;;;;276.30;111.40;;;;;;;6.42;67.77;100673.57;111115;1209;97693;-61
2023/03/20 01:15:53;;;;;;;273.30;108.40;;;;;;;6.43;67.88;100673.89;110991;1212;139422;-62
2023/03/20 01:18:21;;;;;;;244.50;97.30;;;;;;;6.42;67.76;100674.27;111267;1207;97575;-61
2023/03/20 01:20:47;;;;;;;268.60;104.70;;;;;;;6.41;67.98;100676.45;111166;1212;107002;-61
2023/03/20 01:23:14;;;;;;;220.60;92.00;;;;;;;6.39;68.03;100678.61;110965;1208;141007;-61
2023/03/20 01:25:40;;;;;;;241.90;92.30;;;;;;;6.38;68.09;100680.60;111144;1210;97607;-61
2023/03/20 01:28:15;;;;;;;238.50;94.80;;;;;;;6.39;68.31;100678.79;111082;1207;139618;-61
2023/03/20 01:30:42;;;;;;;246.20;96.70;;;;;;;6.41;68.29;100674.30;111098;1211;107425;-61
2023/03/20 01:33:15;;;;;;;219.80;89.70;;;;;;;6.44;68.34;100675.83;111179;1208;96510;-61
2023/03/20 01:35:41;;;;;;;236.00;93.90;;;;;;;6.45;68.45;100671.89;111055;1212;97773;-61
2023/03/20 01:38:17;;;;;;;228.00;94.30;;;;;;;6.43;68.45;100670.16;111083;1207;97996;-61
2023/03/20 01:41:15;;;;;;;233.40;94.50;;;;;;;6.43;68.38;100670.16;111025;1212;138781;-62
2023/03/20 01:43:42;;;;;;;202.00;80.00;;;;;;;6.44;68.52;100670.13;111092;1207;108447;-61
2023/03/20 01:46:10;;;;;;;233.10;92.60;;;;;;;6.43;68.48;100667.69;110993;1212;138980;-61
2023/03/20 01:48:59;;;;;;;209.70;81.60;;;;;;;6.45;68.84;100673.15;111028;1207;97582;-61
2023/03/20 01:51:34;;;;;;;237.20;95.40;;;;;;;6.47;68.76;100669.72;110928;1209;139529;-61
2023/03/20 01:54:18;;;;;;;224.30;90.80;;;;;;;6.48;68.77;100670.23;111094;1207;100062;-61
2023/03/20 01:56:52;;;;;;;229.70;93.00;;;;;;;6.49;68.90;100669.14;111077;1209;108196;-60
2023/03/20 01:59:27;;;;;;;239.30;93.50;;;;;;;6.48;68.93;100671.11;111043;1207;138941;-61
2023/03/20 02:01:52;;;;;;;234.70;93.60;;;;;;;6.46;68.93;100668.67;111057;1209;98080;-61
2023/03/20 02:04:24;;;;;;;236.90;94.20;;;;;;;6.45;69.06;100669.22;110952;1210;138866;-61
2023/03/20 02:06:50;;;;;;;231.10;93.30;;;;;;;6.46;69.12;100670.27;111170;1211;100143;-61
2023/03/20 02:09:19;;;;;;;271.30;104.30;;;;;;;6.47;69.17;100670.77;111049;1212;141839;-61
2023/03/20 02:11:46;;;;;;;258.60;101.10;;;;;;;6.51;69.21;100668.19;111118;1207;97808;-61
2023/03/20 02:14:12;;;;;;;258.90;103.60;;;;;;;6.55;69.45;100667.18;111054;1208;97587;-61
2023/03/20 02:16:37;;;;;;;271.10;105.20;;;;;;;6.61;69.39;100664.56;110942;1208;139843;-62
2023/03/20 02:19:05;;;;;;;252.80;100.30;;;;;;;6.63;69.37;100667.33;111156;1211;99022;-62
2023/03/20 02:21:33;;;;;;;274.40;104.30;;;;;;;6.64;69.45;100664.48;111110;1209;140507;-60
2023/03/20 02:24:20;;;;;;;252.10;100.10;;;;;;;6.65;69.53;100666.91;111087;1207;98041;-61
2023/03/20 02:27:07;;;;;;;246.50;95.60;;;;;;;6.66;69.60;100662.80;111079;1211;110591;-61
2023/03/20 02:30:11;;;;;;;227.40;92.40;;;;;;;6.68;69.66;100663.10;110966;1212;138792;-61
2023/03/20 02:33:25;;;;;;;219.10;88.00;;;;;;;6.73;69.93;100663.34;111088;1207;108045;-60
2023/03/20 02:36:10;;;;;;;191.80;77.80;;;;;;;6.77;70.03;100662.48;110877;1207;97796;-61
2023/03/20 02:39:01;;;;;;;172.10;73.10;;;;;;;6.81;69.93;100658.30;111129;1208;97648;-60
2023/03/20 02:41:31;;;;;;;172.20;69.20;;;;;;;6.82;70.04;100660.75;110987;1208;138448;-61
2023/03/20 02:44:23;;;;;;;166.70;67.70;;;;;;;6.87;70.26;100657.80;111293;1212;100028;-62
2023/03/20 02:46:51;;;;;;;156.50;67.50;;;;;;;6.92;70.46;100661.20;110902;1212;139502;-62
2023/03/20 02:49:35;;;;;;;160.30;67.40;;;;;;;6.92;70.50;100663.16;110949;1212;97630;-62
2023/03/20 02:52:04;;;;;;;167.20;69.10;;;;;;;6.80;70.86;100664.91;110916;1211;139596;-62
2023/03/20 02:54:49;;;;;;;151.70;61.50;;;;;;;6.71;71.04;100664.98;111171;1207;111612;-62
2023/03/20 02:57:22;;;;;;;150.50;62.70;;;;;;;6.64;70.93;100660.39;111092;1206;99808;-62
2023/03/20 03:00:15;;;;;;;144.20;61.40;;;;;;;6.62;71.45;100660.79;111011;1208;106165;-62
2023/03/20 03:03:07;;;;;;;113.70;51.20;;;;;;;6.66;72.02;100656.08;111117;1209;97692;-62
2023/03/20 03:05:41;;;;;;;139.90;60.40;;;;;;;6.71;72.35;100661.23;110968;1209;138675;-61
2023/03/20 03:08:12;;;;;;;127.70;56.90;;;;;;;6.69;72.39;100658.83;111141;1211;111836;-61
2023/03/20 03:10:43;;;;;;;135.20;57.80;;;;;;;6.70;72.50;100653.30;111102;1212;140680;-61
2023/03/20 03:13:13;;;;;;;;;;;;;;;6.72;72.71;100651.63;111157;1209;107871;-61
2023/03/20 03:15:42;;;;;;;129.20;56.40;;;;;;;6.71;72.96;100650.06;110977;1214;126637;-63
2023/03/20 03:18:14;;;;;;;126.60;56.10;;;;;;;6.75;73.36;100650.15;111085;1212;97689;-61
2023/03/20 03:20:43;;;;;;;130.30;58.20;;;;;;;6.77;73.53;100650.23;111156;1212;111027;-61
2023/03/20 03:23:19;;;;;;;139.80;62.60;;;;;;;6.81;73.67;100650.67;110942;1207;139809;-61
2023/03/20 03:25:45;;;;;;;131.50;57.60;;;;;;;6.81;73.60;100652.46;111067;1207;106160;-61
2023/03/20 03:28:24;;;;;;;139.30;59.70;;;;;;;6.82;74.00;100649.23;111043;1208;140458;-61
2023/03/20 03:30:52;;;;;;;132.50;58.50;;;;;;;6.83;73.92;100647.42;111136;1207;97645;-61
2023/03/20 03:33:24;;;;;;;141.10;59.90;;;;;;;6.80;74.29;100647.31;111090;1209;111076;-61
2023/03/20 03:36:03;;;;;;;143.90;63.70;;;;;;;6.82;74.34;100646.21;111166;1212;99875;-60
2023/03/20 03:38:36;;;;;;;147.90;62.90;;;;;;;6.79;74.50;100650.37;111109;1212;108578;-61
2023/03/20 03:41:16;;;;;;;147.30;63.40;;;;;;;6.78;74.69;100651.63;110958;1208;139060;-61
2023/03/20 03:44:03;;;;;;;153.20;64.10;;;;;;;6.77;74.97;100652.04;111096;1207;97561;-61
2023/03/20 03:46:44;;;;;;;148.20;65.10;;;;;;;6.76;75.31;100649.40;110979;1212;139200;-61
2023/03/20 03:49:15;;;;;;;131.30;59.50;;;;;;;6.79;75.32;100648.96;111065;1207;100379;-61
2023/03/20 03:51:42;;;;;;;;;;;;;;;6.80;75.58;100649.98;110994;1209;139806;-60
2023/03/20 03:54:13;;;;;;;130.00;57.40;;;;;;;6.81;75.92;100645.34;111069;1212;97657;-61
2023/03/20 03:56:42;;;;;;;127.30;56.40;;;;;;;6.84;76.01;100642.77;111270;1207;97587;-61
2023/03/20 03:59:16;;;;;;;108.00;50.40;;;;;;;6.86;76.03;100640.23;110988;1209;138761;-60
2023/03/20 04:01:43;;;;;;;108.90;47.80;;;;;;;6.88;76.14;100637.89;111113;1207;99206;-60
2023/03/20 04:04:12;;;;;;;113.80;49.80;;;;;;;6.92;76.41;100639.72;111047;1207;140149;-60
2023/03/20 04:06:37;;;;;;;106.60;46.20;;;;;;;6.95;76.46;100637.31;111116;1212;97692;-61
2023/03/20 04:09:03;;;;;;;102.90;47.50;;;;;;;6.96;76.63;100635.88;111055;1210;99209;-60
2023/03/20 04:11:28;;;;;;;105.80;46.10;;;;;;;6.99;77.04;100634.72;111075;1207;140159;-61
2023/03/20 04:13:54;;;;;;;103.20;46.80;;;;;;;7.01;77.15;100637.50;111123;1209;97629;-61
2023/03/20 04:16:22;;;;;;;105.10;48.40;;;;;;;7.02;77.08;100638.36;111013;1208;140411;-61
2023/03/20 04:18:47;;;;;;;94.20;43.90;;;;;;;7.02;77.15;100636.94;111268;1211;97655;-61
2023/03/20 04:21:14;;;;;;;98.60;44.80;;;;;;;7.03;77.34;100636.19;111206;1209;98139;-60
2023/03/20 04:23:40;;;;;;;97.50;44.80;;;;;;;7.02;77.28;100639.58;110913;1207;139109;-61
2023/03/20 04:26:06;;;;;;;90.50;44.40;;;;;;;7.02;77.54;100642.64;111077;1207;97693;-61
2023/03/20 04:28:32;;;;;;;107.90;48.20;;;;;;;6.98;77.27;100646.10;111036;1207;139259;-61
2023/03/20 04:30:59;;;;;;;112.50;50.80;;;;;;;6.93;77.62;100650.70;111191;1211;97671;-60
2023/03/20 04:33:26;;;;;;;111.00;49.80;;;;;;;6.91;77.88;100650.59;111042;1208;139554;-60
2023/03/20 04:35:51;;;;;;;109.60;47.00;;;;;;;6.89;78.05;100648.50;111340;1207;97718;-61
2023/03/20 04:38:17;;;;;;;112.30;49.40;;;;;;;6.88;78.16;100644.45;111227;1209;97620;-61
2023/03/20 04:40:44;;;;;;;120.30;54.50;;;;;;;6.88;78.16;100644.09;111114;1207;140645;-61
2023/03/20 04:43:10;;;;;;;100.30;43.70;;;;;;;6.90;78.36;100644.21;111059;1207;97646;-61
2023/03/20 04:45:35;;;;;;;96.70;45.00;;;;;;;6.92;78.50;100642.02;111052;1210;139869;-61
2023/03/20 04:48:01;;;;;;;96.40;41.50;;;;;;;6.94;78.47;100643.21;111148;1207;96138;-61
2023/03/20 04:50:26;;;;;;;95.90;42.00;;;;;;;6.95;78.69;100643.18;111091;1212;97684;-61
2023/03/20 04:52:52;;;;;;;104.50;45.40;;;;;;;6.96;78.79;100644.05;111009;1209;140459;-61
2023/03/20 04:55:17;;;;;;;87.00;43.40;;;;;;;6.97;78.92;100645.23;111084;1208;97942;-61
2023/03/20 04:57:42;;;;;;;90.70;43.30;;;;;;;6.97;79.00;100645.25;110981;1208;139775;-61
2023/03/20 05:00:08;;;;;;;93.90;44.20;;;;;;;6.97;79.17;100651.11;111175;1210;97711;-61
2023/03/20 05:02:34;;;;;;;92.90;43.70;;;;;;;6.97;79.16;100647.22;111236;1207;97665;-60
2023/03/20 05:04:59;;;;;;;89.80;41.20;;;;;;;6.97;79.44;100646.69;110981;1212;139159;-60
2023/03/20 05:07:24;;;;;;;92.50;42.80;;;;;;;6.97;79.57;100648.98;111173;1209;97634;-60
2023/03/20 05:09:50;;;;;;;105.00;46.40;;;;;;;6.99;79.59;100653.20;111038;1212;139420;-60
2023/03/20 05:12:16;;;;;;;111.60;46.30;;;;;;;6.97;79.67;100653.42;111191;1208;97685;-61
2023/03/20 05:14:41;;;;;;;115.20;47.00;;;;;;;6.97;79.51;100659.46;111132;1212;111322;-61
2023/03/20 05:17:06;;;;;;;121.60;50.10;;;;;;;6.97;79.79;100662.31;111034;1211;139424;-60
2023/03/20 05:19:33;;;;;;;108.70;49.70;;;;;;;6.98;80.00;100663.54;111167;1209;97668;-61
2023/03/20 05:22:00;;;;;;;113.30;48.40;;;;;;;6.97;80.02;100663.02;110997;1212;139411;-61
2023/03/20 05:24:26;;;;;;;114.60;47.80;;;;;;;6.96;80.25;100661.98;111127;1207;98104;-61
2023/03/20 05:26:51;;;;;;;116.40;49.70;;;;;;;6.96;80.21;100657.35;111139;1212;97771;-61
2023/03/20 05:29:16;;;;;;;108.50;46.50;;;;;;;6.98;80.34;100659.80;110993;1207;138690;-63
2023/03/20 05:31:42;;;;;;;95.60;44.10;;;;;;;6.99;80.36;100665.46;111112;1212;97655;-62
2023/03/20 05:34:07;;;;;;;103.10;44.40;;;;;;;6.99;80.48;100664.57;110915;1207;142029;-61
2023/03/20 05:36:32;;;;;;;111.30;45.50;;;;;;;6.98;80.40;100665.65;111117;1212;98034;-61
2023/03/20 05:38:58;;;;;;;97.00;41.30;;;;;;;6.97;80.47;100668.70;111154;1207;97872;-61
2023/03/20 05:41:23;;;;;;;103.20;44.90;;;;;;;6.96;80.59;100662.52;110972;1210;139248;-61
2023/03/20 05:43:48;;;;;;;94.00;41.20;;;;;;;6.98;80.84;100661.23;111085;1207;97584;-61
2023/03/20 05:46:14;;;;;;;96.10;44.40;;;;;;;7.00;80.85;100665.96;110983;1212;140549;-61
2023/03/20 05:48:39;;;;;;;96.80;44.60;;;;;;;7.00;81.00;100671.11;111150;1207;97621;-61
2023/03/20 05:51:05;;;;;;;99.50;45.20;;;;;;;7.01;81.31;100671.43;111060;1212;97606;-61
2023/03/20 05:53:30;;;;;;;101.20;44.80;;;;;;;7.01;81.36;100676.23;111054;1207;139101;-61
2023/03/20 05:55:56;;;;;;;96.70;44.90;;;;;;;7.01;81.44;100672.67;111116;1212;97652;-61
2023/03/20 05:58:21;;;;;;;93.20;44.70;;;;;;;7.03;81.54;100672.96;110994;1209;138661;-61
2023/03/20 06:00:46;;;;;;;97.20;44.90;;;;;;;7.06;81.60;100671.66;111078;1211;97727;-61
2023/03/20 06:03:12;;;;;;;102.00;43.70;;;;;;;7.06;81.88;100672.17;111123;1207;97724;-61
2023/03/20 06:05:37;;;;;;;90.50;41.40;;;;;;;7.07;81.85;100678.73;110999;1208;139364;-61
2023/03/20 06:08:04;;;;;;;90.90;43.90;;;;;;;7.08;81.76;100678.69;111155;1207;97770;-61
2023/03/20 06:10:30;;;;;;;95.80;45.10;;;;;;;7.09;82.01;100677.42;111171;1211;139856;-60
2023/03/20 06:12:59;;;;;;;94.40;43.90;;;;;;;7.10;82.06;100676.33;111206;1207;97594;-61
2023/03/20 06:15:27;;;;;;;93.80;43.00;;;;;;;7.11;81.86;100677.17;111087;1212;138990;-61
2023/03/20 06:17:53;;;;;;;93.70;45.30;;;;;;;7.12;82.08;100678.05;111100;1212;99059;-61
2023/03/20 06:20:18;;;;;;;96.00;44.30;;;;;;;7.12;82.09;100680.34;111118;1207;99835;-61
2023/03/20 06:22:45;;;;;;;96.50;41.20;;;;;;;7.14;82.17;100679.94;110975;1210;140502;-61
2023/03/20 06:25:10;;;;;;;102.10;46.60;;;;;;;7.15;82.12;100685.77;111136;1212;97658;-61
2023/03/20 06:27:36;;;;;;;92.80;44.20;;;;;;;7.17;82.32;100688.73;111018;1210;139547;-63
2023/03/20 06:30:01;;;;;;;103.10;47.60;;;;;;;7.20;82.47;100690.79;111163;1211;97732;-62
2023/03/20 06:32:26;;;;;;;93.10;46.00;;;;;;;7.22;82.48;100688.59;111131;1210;95191;-62
2023/03/20 06:34:52;;;;;;;101.20;45.70;;;;;;;7.25;82.54;100689.41;111123;1207;139473;-62
2023/03/20 06:37:19;;;;;;;96.00;45.10;;;;;;;7.27;82.65;100690.75;111126;1213;100016;-63
2023/03/20 06:39:44;;;;;;;103.80;44.20;;;;;;;7.30;82.85;100691.74;110999;1207;139411;-61
2023/03/20 06:42:11;;;;;;;92.10;44.20;;;;;;;7.33;82.94;100689.68;111184;1210;97642;-61
2023/03/20 06:44:37;;;;;;;90.90;44.30;;;;;;;7.38;82.92;100693.46;111164;1207;97600;-61
2023/03/20 06:47:02;;;;;;;92.20;43.20;;;;;;;7.40;82.90;100692.52;111021;1212;139821;-61
2023/03/20 06:49:28;;;;;;;105.30;45.10;;;;;;;7.41;83.09;100694.98;111094;1208;97643;-61
2023/03/20 06:51:53;;;;;;;95.80;44.70;;;;;;;7.43;83.25;100695.78;111127;1212;139071;-63
2023/03/20 06:54:18;;;;;;;96.10;43.10;;;;;;;7.46;83.23;100694.81;111060;1207;98505;-61
2023/03/20 06:56:44;;;;;;;85.40;43.10;;;;;;;7.47;83.30;100695.50;111044;1212;97683;-61
2023/03/20 06:59:09;;;;;;;92.20;44.80;;;;;;;7.48;83.44;100693.70;110832;1208;138590;-61
2023/03/20 07:01:34;;;;;;;85.90;43.20;;;;;;;7.50;83.41;100688.66;111071;1211;97733;-61
2023/03/20 07:04:00;;;;;;;88.10;42.60;;;;;;;7.51;83.48;100691.83;110914;1208;140838;-61
2023/03/20 07:06:25;;;;;;;90.50;44.10;;;;;;;7.55;83.73;100696.35;110997;1212;97800;-61
2023/03/20 07:08:51;;;;;;;92.90;43.90;;;;;;;7.57;83.73;100694.52;111082;1211;97591;-63
2023/03/20 07:11:17;;;;;;;90.50;46.30;;;;;;;7.57;83.85;100695.02;110714;1211;140155;-61
2023/03/20 07:13:43;;;;;;;93.40;45.00;;;;;;;7.59;83.94;100699.05;111000;1212;97600;-61
2023/03/20 07:16:09;;;;;;;82.50;42.70;;;;;;;7.61;84.07;100700.61;113000;1208;140203;-62
2023/03/20 07:18:34;;;;;;;86.60;42.80;;;;;;;7.63;83.99;100704.09;112404;1210;97612;-61
2023/03/20 07:21:03;;;;;;;78.80;40.20;;;;;;;7.67;84.12;100706.83;110954;1212;98084;-61
2023/03/20 07:23:29;;;;;;;81.50;39.00;;;;;;;7.70;84.23;100710.83;110919;1207;139155;-61
2023/03/20 07:25:55;;;;;;;80.60;37.90;;;;;;;7.72;84.19;100708.96;111032;1209;97690;-62
2023/03/20 07:28:20;;;;;;;76.90;37.10;;;;;;;7.74;84.37;100707.84;110797;1207;139629;-62
2023/03/20 07:30:45;;;;;;;75.00;35.60;;;;;;;7.78;84.55;100705.05;111075;1207;97929;-61
2023/03/20 07:33:11;;;;;;;74.70;35.90;;;;;;;7.83;84.55;100704.33;111128;1213;97587;-61
2023/03/20 07:35:38;;;;;;;72.10;35.50;;;;;;;7.87;84.66;100701.38;110948;1207;140355;-62
2023/03/20 07:38:05;;;;;;;73.20;37.00;;;;;;;7.91;84.68;100699.27;110997;1213;96251;-61
2023/03/20 07:40:31;;;;;;;66.40;35.10;;;;;;;7.97;84.91;100702.10;111083;1212;140157;-61
2023/03/20 07:42:56;;;;;;;74.90;37.00;;;;;;;8.02;85.00;100700.34;111076;1212;97877;-61
2023/03/20 07:45:22;;;;;;;74.40;36.60;;;;;;;8.08;84.95;100706.91;111146;1207;97760;-61
2023/03/20 07:47:48;;;;;;;66.90;37.10;;;;;;;8.15;85.11;100705.45;111181;1212;97853;-61
2023/03/20 07:50:13;;;;;;;71.60;37.20;;;;;;;8.20;85.16;100702.78;111152;1208;97587;-61
2023/03/20 07:52:39;;;;;;;73.10;37.00;;;;;;;8.26;85.09;100703.84;111179;1212;138577;-61
2023/03/20 07:55:05;;;;;;;75.60;35.20;;;;;;;8.31;85.15;100704.38;111154;1210;97606;-61
2023/03/20 07:57:30;;;;;;;75.20;37.90;;;;;;;8.36;85.10;100706.39;111057;1208;139253;-61
2023/03/20 07:59:56;;;;;;;65.20;34.40;;;;;;;8.40;85.22;100708.91;111124;1208;100541;-61
2023/03/20 08:02:21;;;;;;;66.70;34.90;;;;;;;8.45;85.42;100708.73;111045;1212;97572;-61
2023/03/20 08:04:46;;;;;;;73.40;35.20;;;;;;;8.54;85.33;100703.65;111102;1211;138842;-61
2023/03/20 08:07:12;;;;;;;63.40;36.70;;;;;;;8.61;85.47;100705.34;111133;1212;95038;-61
2023/03/20 08:09:37;;;;;;;72.20;33.40;;;;;;;8.70;85.53;100708.27;111062;1210;138730;-62
2023/03/20 08:12:03;;;;;;;77.60;36.50;;;;;;;8.77;85.54;100705.86;110988;1212;97658;-62
2023/03/20 08:14:29;;;;;;;64.60;34.80;;;;;;;8.85;85.73;100705.41;111137;1207;97721;-62
2023/03/20 08:16:55;;;;;;;73.80;35.20;;;;;;;8.96;85.78;100710.00;111058;1212;140517;-62
2023/03/20 08:19:20;;;;;;;69.20;34.80;;;;;;;9.07;85.82;100711.77;111118;1207;107751;-62
2023/03/20 08:21:46;;;;;;;61.20;30.10;;;;;;;9.14;85.85;100710.59;110839;1211;139744;-62
2023/03/20 08:24:11;;;;;;;64.10;32.80;;;;;;;9.21;85.82;100713.04;111079;1212;97667;-61
2023/03/20 08:26:37;;;;;;;65.30;32.20;;;;;;;9.22;85.75;100707.63;111136;1207;98068;-62
2023/03/20 08:29:03;;;;;;;57.00;30.40;;;;;;;9.27;85.91;100710.50;111071;1212;139128;-62
2023/03/20 08:31:28;;;;;;;57.10;30.60;;;;;;;9.31;85.91;100710.50;111268;1207;97607;-62
2023/03/20 08:33:55;;;;;;;56.40;30.40;;;;;;;9.33;85.96;100711.70;111022;1212;140021;-61
2023/03/20 08:36:21;;;;;;;54.90;30.80;;;;;;;9.38;86.07;100712.58;111087;1208;97456;-59
2023/03/20 08:38:48;;;;;;;53.70;30.00;;;;;;;9.43;86.30;100716.81;111168;1212;97711;-62
2023/03/20 08:41:14;;;;;;;51.00;28.10;;;;;;;9.51;86.18;100720.14;110992;1207;140058;-63
2023/03/20 08:43:40;;;;;;;55.10;30.40;;;;;;;9.53;86.18;100723.97;111222;1207;97674;-62
2023/03/20 08:46:06;;;;;;;62.70;29.30;;;;;;;9.57;86.28;100732.71;111023;1212;139118;-62
2023/03/20 08:48:32;;;;;;;51.60;29.40;;;;;;;9.63;86.36;100732.33;111195;1212;97890;-63
2023/03/20 08:50:58;;;;;;;46.40;27.20;;;;;;;9.66;86.37;100731.29;111070;1210;97683;-64
2023/03/20 08:53:23;;;;;;;50.60;28.70;;;;;;;9.67;86.31;100725.91;110965;1211;139412;-63
2023/03/20 08:55:49;;;;;;;42.80;24.40;;;;;;;9.73;86.45;100729.05;111141;1207;97722;-62
2023/03/20 08:58:17;;;;;;;50.30;28.20;;;;;;;9.83;86.54;100729.77;110956;1210;139477;-63
2023/03/20 09:00:43;;;;;;;48.10;27.40;;;;;;;9.86;86.47;100726.27;111115;1208;98103;-63
2023/03/20 09:03:16;;;;;;;50.30;27.60;;;;;;;9.89;86.56;100734.16;111169;1207;97814;-63
2023/03/20 09:05:51;;;;;;;44.90;26.40;;;;;;;9.93;86.67;100733.83;110967;1212;139529;-63
2023/03/20 09:08:19;;;;;;;48.40;26.00;;;;;;;10.00;86.70;100726.06;111067;1207;97801;-63
2023/03/20 09:10:46;;;;;;;45.40;24.90;;;;;;;10.04;86.72;100732.65;110972;1207;139925;-63
2023/03/20 09:13:12;;;;;;;45.90;23.90;;;;;;;10.04;86.64;100739.46;111092;1212;97769;-63
2023/03/20 09:15:38;;;;;;;53.90;27.60;;;;;;;10.01;86.75;100738.15;111026;1209;141075;-63
2023/03/20 09:18:03;;;;;;;43.90;24.50;;;;;;;9.98;86.80;100736.12;111112;1208;97681;-63
2023/03/20 09:20:29;;;;;;;51.00;25.90;;;;;;;9.96;86.96;100738.87;111078;1208;97669;-62
2023/03/20 09:22:55;;;;;;;46.50;25.60;;;;;;;9.99;87.06;100733.58;110955;1211;139126;-62
2023/03/20 09:25:20;;;;;;;46.40;26.40;;;;;;;10.01;87.15;100734.02;111156;1208;97568;-62
2023/03/20 09:27:46;;;;;;;44.60;27.20;;;;;;;10.09;87.30;100735.88;111006;1212;139595;-62
2023/03/20 09:30:12;;;;;;;47.40;27.20;;;;;;;10.25;87.53;100735.98;111205;1212;97589;-62
2023/03/20 09:32:38;;;;;;;40.80;23.80;;;;;;;10.39;87.57;100736.99;111149;1212;100068;-62
2023/03/20 09:35:05;;;;;;;40.80;23.90;;;;;;;10.45;87.57;100726.90;110903;1210;141178;-62
2023/03/20 09:37:30;;;;;;;39.70;22.50;;;;;;;10.59;87.70;100724.71;111150;1210;97687;-62
2023/03/20 09:39:55;;;;;;;41.40;24.50;;;;;;;10.69;87.86;100720.85;111078;1212;140430;-62
2023/03/20 09:42:42;;;;;;;35.60;22.40;;;;;;;10.81;87.93;100718.21;111058;1207;97642;-61
2023/03/20 09:45:56;;;;;;;33.30;21.40;;;;;;;10.90;87.87;100718.55;111022;1212;108777;-62
2023/03/20 09:48:33;;;;;;;37.60;22.20;;;;;;;10.95;87.73;100710.98;110842;1215;97744;-60
2023/03/20 09:51:12;;;;;;;32.40;20.30;;;;;;;10.99;87.81;100705.25;110902;1214;97574;-61
2023/03/20 09:53:43;;;;;;;34.40;21.50;;;;;;;11.07;87.73;100709.02;110946;1213;139942;-59
2023/03/20 09:56:22;;;;;;;35.10;19.50;;;;;;;11.14;87.77;100703.55;111127;1212;100192;-60
2023/03/20 09:58:55;;;;;;;30.80;19.60;;;;;;;11.19;87.69;100707.03;110952;1212;140611;-59
2023/03/20 10:01:39;;;;;;;29.30;19.00;;;;;;;11.28;87.74;100708.77;111101;1212;97586;-60
2023/03/20 10:04:10;;;;;;;36.00;19.80;;;;;;;11.39;87.58;100716.70;110954;1212;140443;-60
2023/03/20 10:06:36;;;;;;;29.10;19.40;;;;;;;11.50;87.72;100712.63;111139;1209;111741;-60
2023/03/20 10:09:11;;;;;;;33.00;19.20;;;;;;;11.61;87.66;100710.67;111218;1210;97654;-60
2023/03/20 10:11:48;;;;;;;27.40;17.60;;;;;;;11.70;87.58;100715.62;111018;1212;139441;-59
2023/03/20 10:14:38;;;;;;;26.60;16.40;;;;;;;11.78;87.53;100716.71;111104;1212;97670;-59
2023/03/20 10:17:14;;;;;;;28.10;17.00;;;;;;;11.83;87.43;100718.27;110948;1208;140163;-60
2023/03/20 10:19:56;;;;;;;32.50;17.10;;;;;;;11.84;87.30;100717.70;111139;1213;111946;-59
2023/03/20 10:22:25;;;;;;;56.30;18.60;;;;;;;11.88;87.35;100721.07;110992;1212;141374;-59
2023/03/20 10:25:03;;;;;;;53.50;16.80;;;;;;;11.92;87.21;100720.69;111083;1207;108426;-60
2023/03/20 10:27:33;;;;;;;31.00;17.20;;;;;;;11.97;87.25;100720.30;110952;1209;139547;-60
2023/03/20 10:30:30;;;;;;;27.20;16.20;;;;;;;11.95;87.01;100720.90;110969;1212;97684;-59
2023/03/20 10:33:12;;;;;;;24.00;15.60;;;;;;;12.03;87.10;100721.98;110991;1208;111767;-60
2023/03/20 10:36:15;;;;;;;32.10;18.00;;;;;;;12.14;87.02;100715.16;110951;1212;138802;-60
2023/03/20 10:38:51;;;;;;;27.80;15.50;;;;;;;12.28;87.04;100712.88;111079;1212;108036;-60
2023/03/20 10:41:22;;;;;;;30.60;16.50;;;;;;;12.37;86.92;100712.98;111027;1208;139998;-60
2023/03/20 10:43:50;;;;;;;28.30;16.10;;;;;;;12.42;86.71;100714.85;111136;1212;97663;-60
2023/03/20 10:46:22;;;;;;;28.10;15.70;;;;;;;12.41;86.48;100720.64;111001;1208;139219;-60
2023/03/20 10:48:55;;;;;;;33.60;16.20;;;;;;;12.43;86.44;100715.54;111089;1212;100170;-60
2023/03/20 10:51:23;;;;;;;30.80;17.30;;;;;;;12.54;86.59;100714.05;111007;1207;108214;-61
2023/03/20 10:53:55;;;;;;;30.80;16.60;;;;;;;12.61;86.40;100710.09;110957;1212;138714;-60
2023/03/20 10:56:39;;;;;;;30.00;16.90;;;;;;;12.63;86.17;100707.65;111075;1207;97709;-61
2023/03/20 10:59:11;;;;;;;28.70;17.50;;;;;;;12.72;86.17;100705.83;110964;1208;138822;-60
2023/03/20 11:01:36;;;;;;;27.90;16.30;;;;;;;12.85;86.23;100704.05;111073;1209;101460;-60
2023/03/20 11:04:01;;;;;;;32.00;16.70;;;;;;;13.03;86.32;100701.28;110920;1212;140151;-60
2023/03/20 11:06:33;;;;;;;28.90;16.80;;;;;;;13.16;85.99;100699.33;111155;1212;97707;-61
2023/03/20 11:09:11;;;;;;;33.20;18.00;;;;;;;13.14;85.66;100695.67;111078;1210;111623;-60
2023/03/20 11:11:43;;;;;;;39.70;18.00;;;;;;;13.18;85.78;100695.46;110951;1212;138924;-61